sensor_id;sensor_type;location;lat;lon;timestamp;P1;durP1;ratioP1;P2;durP2;ratioP2
12412;SDS011;13877;18.896;-99.222;2023-06-14T00:01:36;19.38;;;9.57;;
12412;SDS011;13877;18.896;-99.222;2023-06-14T00:04:05;20.83;;;9.20;;
12412;SDS011;13877;18.896;-99.222;2023-06-14T00:06:34;16.45;;;9.55;;
12412;SDS011;13877;18.896;-99.222;2023-06-14T00:09:01;17.38;;;8.77;;
12412;SDS011;13877;18.896;-99.222;2023-06-14T00:11:28;17.33;;;8.95;;
12412;SDS011;13877;18.896;-99.222;2023-06-14T00:13:56;16.02;;;9.63;;
12412;SDS011;13877;18.896;-99.222;2023-06-14T00:16:23;21.40;;;9.05;;
12412;SDS011;13877;18.896;-99.222;2023-06-14T00:18:50;14.98;;;9.30;;
12412;SDS011;13877;18.896;-99.222;2023-06-14T00:21:18;13.70;;;8.55;;
12412;SDS011;13877;18.896;-99.222;2023-06-14T00:23:45;18.23;;;9.65;;
12412;SDS011;13877;18.896;-99.222;2023-06-14T00:26:12;24.58;;;9.52;;
12412;SDS011;13877;18.896;-99.222;2023-06-14T00:28:40;19.98;;;9.75;;
12412;SDS011;13877;18.896;-99.222;2023-06-14T00:31:07;14.60;;;9.27;;
12412;SDS011;13877;18.896;-99.222;2023-06-14T00:33:33;16.42;;;9.38;;
12412;SDS011;13877;18.896;-99.222;2023-06-14T00:36:00;17.73;;;9.75;;
12412;SDS011;13877;18.896;-99.222;2023-06-14T00:38:27;26.42;;;10.05;;
12412;SDS011;13877;18.896;-99.222;2023-06-14T00:40:54;19.90;;;9.95;;
12412;SDS011;13877;18.896;-99.222;2023-06-14T00:43:21;18.88;;;9.30;;
12412;SDS011;13877;18.896;-99.222;2023-06-14T00:45:49;21.60;;;10.02;;
12412;SDS011;13877;18.896;-99.222;2023-06-14T00:48:16;20.90;;;9.60;;
12412;SDS011;13877;18.896;-99.222;2023-06-14T00:50:44;15.98;;;10.05;;
12412;SDS011;13877;18.896;-99.222;2023-06-14T00:53:13;26.33;;;9.68;;
12412;SDS011;13877;18.896;-99.222;2023-06-14T00:55:41;27.30;;;9.98;;
12412;SDS011;13877;18.896;-99.222;2023-06-14T00:58:08;16.70;;;9.63;;
12412;SDS011;13877;18.896;-99.222;2023-06-14T01:00:37;17.00;;;9.38;;
12412;SDS011;13877;18.896;-99.222;2023-06-14T01:03:04;19.92;;;9.23;;
12412;SDS011;13877;18.896;-99.222;2023-06-14T01:05:31;15.35;;;9.45;;
12412;SDS011;13877;18.896;-99.222;2023-06-14T01:08:12;18.48;;;10.23;;
12412;SDS011;13877;18.896;-99.222;2023-06-14T01:11:16;17.13;;;10.15;;
12412;SDS011;13877;18.896;-99.222;2023-06-14T01:13:48;22.95;;;10.80;;
12412;SDS011;13877;18.896;-99.222;2023-06-14T01:16:17;23.42;;;10.60;;
12412;SDS011;13877;18.896;-99.222;2023-06-14T01:18:45;25.92;;;10.88;;
12412;SDS011;13877;18.896;-99.222;2023-06-14T01:21:21;25.50;;;10.35;;
12412;SDS011;13877;18.896;-99.222;2023-06-14T01:23:52;21.00;;;11.18;;
12412;SDS011;13877;18.896;-99.222;2023-06-14T01:26:20;18.35;;;10.60;;
12412;SDS011;13877;18.896;-99.222;2023-06-14T01:28:50;21.25;;;10.68;;
12412;SDS011;13877;18.896;-99.222;2023-06-14T01:31:19;19.05;;;10.20;;
12412;SDS011;13877;18.896;-99.222;2023-06-14T01:33:50;30.38;;;11.65;;
12412;SDS011;13877;18.896;-99.222;2023-06-14T01:36:21;26.75;;;11.85;;
12412;SDS011;13877;18.896;-99.222;2023-06-14T01:38:52;25.83;;;12.98;;
12412;SDS011;13877;18.896;-99.222;2023-06-14T01:41:21;25.08;;;12.95;;
12412;SDS011;13877;18.896;-99.222;2023-06-14T01:43:51;23.20;;;12.63;;
12412;SDS011;13877;18.896;-99.222;2023-06-14T01:46:20;29.35;;;13.63;;
12412;SDS011;13877;18.896;-99.222;2023-06-14T01:48:46;33.85;;;13.80;;
12412;SDS011;13877;18.896;-99.222;2023-06-14T01:51:14;25.38;;;13.43;;
12412;SDS011;13877;18.896;-99.222;2023-06-14T01:53:41;27.98;;;13.50;;
12412;SDS011;13877;18.896;-99.222;2023-06-14T01:56:09;28.13;;;13.32;;
12412;SDS011;13877;18.896;-99.222;2023-06-14T01:58:36;24.05;;;13.43;;
12412;SDS011;13877;18.896;-99.222;2023-06-14T02:01:03;32.80;;;14.15;;
12412;SDS011;13877;18.896;-99.222;2023-06-14T02:03:32;28.88;;;14.02;;
12412;SDS011;13877;18.896;-99.222;2023-06-14T02:06:00;34.22;;;13.60;;
12412;SDS011;13877;18.896;-99.222;2023-06-14T02:08:27;27.95;;;13.90;;
12412;SDS011;13877;18.896;-99.222;2023-06-14T02:10:54;24.30;;;13.55;;
12412;SDS011;13877;18.896;-99.222;2023-06-14T02:13:21;38.80;;;14.73;;
12412;SDS011;13877;18.896;-99.222;2023-06-14T02:15:50;29.02;;;13.70;;
12412;SDS011;13877;18.896;-99.222;2023-06-14T02:18:22;28.75;;;14.68;;
12412;SDS011;13877;18.896;-99.222;2023-06-14T02:20:50;30.08;;;13.32;;
12412;SDS011;13877;18.896;-99.222;2023-06-14T02:23:17;30.75;;;14.55;;
12412;SDS011;13877;18.896;-99.222;2023-06-14T02:25:44;27.33;;;14.60;;
12412;SDS011;13877;18.896;-99.222;2023-06-14T02:28:11;30.55;;;13.60;;
12412;SDS011;13877;18.896;-99.222;2023-06-14T02:30:39;26.17;;;13.82;;
12412;SDS011;13877;18.896;-99.222;2023-06-14T02:33:06;24.40;;;13.88;;
12412;SDS011;13877;18.896;-99.222;2023-06-14T02:35:33;26.85;;;14.38;;
12412;SDS011;13877;18.896;-99.222;2023-06-14T02:38:01;32.15;;;14.30;;
12412;SDS011;13877;18.896;-99.222;2023-06-14T02:40:28;26.85;;;14.20;;
12412;SDS011;13877;18.896;-99.222;2023-06-14T02:42:56;29.30;;;13.88;;
12412;SDS011;13877;18.896;-99.222;2023-06-14T02:45:24;29.42;;;14.40;;
12412;SDS011;13877;18.896;-99.222;2023-06-14T02:47:53;25.42;;;12.63;;
12412;SDS011;13877;18.896;-99.222;2023-06-14T02:50:21;25.42;;;12.82;;
12412;SDS011;13877;18.896;-99.222;2023-06-14T02:52:49;30.02;;;13.38;;
12412;SDS011;13877;18.896;-99.222;2023-06-14T02:55:16;27.52;;;12.98;;
12412;SDS011;13877;18.896;-99.222;2023-06-14T02:57:44;25.40;;;12.63;;
12412;SDS011;13877;18.896;-99.222;2023-06-14T03:00:15;26.55;;;13.10;;
12412;SDS011;13877;18.896;-99.222;2023-06-14T03:02:45;31.30;;;12.52;;
12412;SDS011;13877;18.896;-99.222;2023-06-14T03:05:12;31.33;;;12.43;;
12412;SDS011;13877;18.896;-99.222;2023-06-14T03:07:45;26.70;;;13.57;;
12412;SDS011;13877;18.896;-99.222;2023-06-14T03:10:13;25.45;;;13.57;;
12412;SDS011;13877;18.896;-99.222;2023-06-14T03:12:41;29.55;;;14.23;;
12412;SDS011;13877;18.896;-99.222;2023-06-14T03:15:10;27.27;;;14.27;;
12412;SDS011;13877;18.896;-99.222;2023-06-14T03:17:42;32.78;;;14.43;;
12412;SDS011;13877;18.896;-99.222;2023-06-14T03:20:12;30.90;;;13.98;;
12412;SDS011;13877;18.896;-99.222;2023-06-14T03:22:40;27.83;;;13.93;;
12412;SDS011;13877;18.896;-99.222;2023-06-14T03:25:07;23.98;;;13.98;;
12412;SDS011;13877;18.896;-99.222;2023-06-14T03:27:38;27.50;;;13.68;;
12412;SDS011;13877;18.896;-99.222;2023-06-14T03:30:06;27.70;;;14.50;;
12412;SDS011;13877;18.896;-99.222;2023-06-14T03:32:34;28.42;;;13.68;;
12412;SDS011;13877;18.896;-99.222;2023-06-14T03:35:02;28.35;;;12.40;;
12412;SDS011;13877;18.896;-99.222;2023-06-14T03:37:29;24.05;;;12.38;;
12412;SDS011;13877;18.896;-99.222;2023-06-14T03:39:56;21.55;;;11.32;;
12412;SDS011;13877;18.896;-99.222;2023-06-14T03:42:24;28.02;;;11.45;;
12412;SDS011;13877;18.896;-99.222;2023-06-14T03:44:52;27.17;;;12.20;;
12412;SDS011;13877;18.896;-99.222;2023-06-14T03:47:21;35.92;;;14.23;;
12412;SDS011;13877;18.896;-99.222;2023-06-14T03:49:48;31.88;;;14.32;;
12412;SDS011;13877;18.896;-99.222;2023-06-14T03:52:15;29.15;;;13.73;;
12412;SDS011;13877;18.896;-99.222;2023-06-14T03:54:45;29.75;;;13.52;;
12412;SDS011;13877;18.896;-99.222;2023-06-14T03:57:13;25.33;;;13.52;;
12412;SDS011;13877;18.896;-99.222;2023-06-14T03:59:41;27.67;;;12.43;;
12412;SDS011;13877;18.896;-99.222;2023-06-14T04:02:09;24.27;;;12.27;;
12412;SDS011;13877;18.896;-99.222;2023-06-14T04:04:38;25.05;;;13.20;;
12412;SDS011;13877;18.896;-99.222;2023-06-14T04:07:05;23.38;;;12.63;;
12412;SDS011;13877;18.896;-99.222;2023-06-14T04:09:34;34.78;;;13.10;;
12412;SDS011;13877;18.896;-99.222;2023-06-14T04:12:01;26.35;;;12.57;;
12412;SDS011;13877;18.896;-99.222;2023-06-14T04:14:31;26.80;;;13.35;;
12412;SDS011;13877;18.896;-99.222;2023-06-14T04:17:00;20.65;;;12.35;;
12412;SDS011;13877;18.896;-99.222;2023-06-14T04:19:28;22.23;;;12.02;;
12412;SDS011;13877;18.896;-99.222;2023-06-14T04:21:55;25.83;;;12.20;;
12412;SDS011;13877;18.896;-99.222;2023-06-14T04:24:22;30.00;;;11.90;;
12412;SDS011;13877;18.896;-99.222;2023-06-14T04:26:58;26.67;;;12.25;;
12412;SDS011;13877;18.896;-99.222;2023-06-14T04:29:28;25.02;;;12.02;;
12412;SDS011;13877;18.896;-99.222;2023-06-14T04:32:01;29.52;;;12.32;;
12412;SDS011;13877;18.896;-99.222;2023-06-14T04:34:29;22.40;;;12.18;;
12412;SDS011;13877;18.896;-99.222;2023-06-14T04:36:57;22.10;;;10.88;;
12412;SDS011;13877;18.896;-99.222;2023-06-14T04:39:30;22.48;;;11.48;;
12412;SDS011;13877;18.896;-99.222;2023-06-14T04:41:59;19.55;;;10.90;;
12412;SDS011;13877;18.896;-99.222;2023-06-14T04:44:27;26.58;;;11.98;;
12412;SDS011;13877;18.896;-99.222;2023-06-14T04:47:00;22.73;;;11.23;;
12412;SDS011;13877;18.896;-99.222;2023-06-14T04:49:27;23.73;;;11.00;;
12412;SDS011;13877;18.896;-99.222;2023-06-14T04:51:56;21.25;;;11.32;;
12412;SDS011;13877;18.896;-99.222;2023-06-14T04:54:32;20.77;;;11.88;;
12412;SDS011;13877;18.896;-99.222;2023-06-14T04:57:01;28.05;;;12.07;;
12412;SDS011;13877;18.896;-99.222;2023-06-14T04:59:32;18.70;;;11.07;;
12412;SDS011;13877;18.896;-99.222;2023-06-14T05:02:01;25.05;;;11.60;;
12412;SDS011;13877;18.896;-99.222;2023-06-14T05:04:28;22.83;;;11.63;;
12412;SDS011;13877;18.896;-99.222;2023-06-14T05:06:57;20.52;;;11.75;;
12412;SDS011;13877;18.896;-99.222;2023-06-14T05:09:24;23.77;;;11.77;;
12412;SDS011;13877;18.896;-99.222;2023-06-14T05:11:51;24.48;;;12.18;;
12412;SDS011;13877;18.896;-99.222;2023-06-14T05:14:18;26.20;;;11.90;;
12412;SDS011;13877;18.896;-99.222;2023-06-14T05:16:46;24.33;;;12.55;;
12412;SDS011;13877;18.896;-99.222;2023-06-14T05:19:14;26.17;;;11.38;;
12412;SDS011;13877;18.896;-99.222;2023-06-14T05:21:44;28.05;;;13.20;;
12412;SDS011;13877;18.896;-99.222;2023-06-14T05:24:11;31.30;;;12.52;;
12412;SDS011;13877;18.896;-99.222;2023-06-14T05:26:38;28.70;;;12.57;;
12412;SDS011;13877;18.896;-99.222;2023-06-14T05:29:05;26.35;;;12.98;;
12412;SDS011;13877;18.896;-99.222;2023-06-14T05:31:32;29.67;;;12.27;;
12412;SDS011;13877;18.896;-99.222;2023-06-14T05:33:59;27.52;;;13.50;;
12412;SDS011;13877;18.896;-99.222;2023-06-14T05:36:28;34.53;;;13.27;;
12412;SDS011;13877;18.896;-99.222;2023-06-14T05:38:55;25.75;;;13.40;;
12412;SDS011;13877;18.896;-99.222;2023-06-14T05:41:28;22.35;;;12.65;;
12412;SDS011;13877;18.896;-99.222;2023-06-14T05:43:56;26.60;;;13.45;;
12412;SDS011;13877;18.896;-99.222;2023-06-14T05:46:23;24.85;;;13.10;;
12412;SDS011;13877;18.896;-99.222;2023-06-14T05:48:51;30.58;;;13.90;;
12412;SDS011;13877;18.896;-99.222;2023-06-14T05:51:19;26.33;;;14.23;;
12412;SDS011;13877;18.896;-99.222;2023-06-14T05:53:46;31.38;;;14.23;;
12412;SDS011;13877;18.896;-99.222;2023-06-14T05:56:14;26.05;;;14.00;;
12412;SDS011;13877;18.896;-99.222;2023-06-14T05:58:44;31.88;;;14.38;;
12412;SDS011;13877;18.896;-99.222;2023-06-14T06:01:11;27.98;;;15.55;;
12412;SDS011;13877;18.896;-99.222;2023-06-14T06:03:41;24.77;;;14.15;;
12412;SDS011;13877;18.896;-99.222;2023-06-14T06:06:11;29.08;;;13.85;;
12412;SDS011;13877;18.896;-99.222;2023-06-14T06:08:38;31.20;;;14.23;;
12412;SDS011;13877;18.896;-99.222;2023-06-14T06:11:06;27.25;;;13.68;;
12412;SDS011;13877;18.896;-99.222;2023-06-14T06:13:33;28.20;;;13.10;;
12412;SDS011;13877;18.896;-99.222;2023-06-14T06:16:01;29.60;;;12.68;;
12412;SDS011;13877;18.896;-99.222;2023-06-14T06:18:29;25.75;;;12.88;;
12412;SDS011;13877;18.896;-99.222;2023-06-14T06:20:56;25.42;;;12.90;;
12412;SDS011;13877;18.896;-99.222;2023-06-14T06:23:23;26.85;;;12.70;;
12412;SDS011;13877;18.896;-99.222;2023-06-14T06:25:50;30.80;;;11.88;;
12412;SDS011;13877;18.896;-99.222;2023-06-14T06:28:17;23.38;;;13.35;;
12412;SDS011;13877;18.896;-99.222;2023-06-14T06:30:44;31.80;;;12.40;;
12412;SDS011;13877;18.896;-99.222;2023-06-14T06:33:11;29.42;;;12.65;;
12412;SDS011;13877;18.896;-99.222;2023-06-14T06:35:38;25.20;;;12.15;;
12412;SDS011;13877;18.896;-99.222;2023-06-14T06:38:05;28.08;;;13.13;;
12412;SDS011;13877;18.896;-99.222;2023-06-14T06:40:33;31.83;;;12.70;;
12412;SDS011;13877;18.896;-99.222;2023-06-14T06:43:00;24.42;;;11.93;;
12412;SDS011;13877;18.896;-99.222;2023-06-14T06:45:28;42.65;;;12.63;;
12412;SDS011;13877;18.896;-99.222;2023-06-14T06:47:55;35.63;;;13.90;;
12412;SDS011;13877;18.896;-99.222;2023-06-14T06:50:22;29.48;;;13.52;;
12412;SDS011;13877;18.896;-99.222;2023-06-14T06:52:50;27.13;;;13.18;;
12412;SDS011;13877;18.896;-99.222;2023-06-14T06:55:19;24.98;;;12.75;;
12412;SDS011;13877;18.896;-99.222;2023-06-14T06:57:46;23.52;;;12.27;;
12412;SDS011;13877;18.896;-99.222;2023-06-14T07:00:14;24.48;;;11.68;;
12412;SDS011;13877;18.896;-99.222;2023-06-14T07:02:43;30.75;;;12.45;;
12412;SDS011;13877;18.896;-99.222;2023-06-14T07:05:10;25.08;;;12.45;;
12412;SDS011;13877;18.896;-99.222;2023-06-14T07:07:37;27.13;;;11.90;;
12412;SDS011;13877;18.896;-99.222;2023-06-14T07:10:04;27.60;;;11.40;;
12412;SDS011;13877;18.896;-99.222;2023-06-14T07:12:31;25.80;;;12.40;;
12412;SDS011;13877;18.896;-99.222;2023-06-14T07:14:59;22.88;;;11.65;;
12412;SDS011;13877;18.896;-99.222;2023-06-14T07:17:28;26.45;;;12.70;;
12412;SDS011;13877;18.896;-99.222;2023-06-14T07:19:55;28.95;;;12.65;;
12412;SDS011;13877;18.896;-99.222;2023-06-14T07:22:22;26.65;;;12.43;;
12412;SDS011;13877;18.896;-99.222;2023-06-14T07:24:49;24.30;;;11.88;;
12412;SDS011;13877;18.896;-99.222;2023-06-14T07:27:16;26.75;;;13.18;;
12412;SDS011;13877;18.896;-99.222;2023-06-14T07:29:43;26.90;;;13.15;;
12412;SDS011;13877;18.896;-99.222;2023-06-14T07:32:10;24.08;;;13.18;;
12412;SDS011;13877;18.896;-99.222;2023-06-14T07:34:38;27.38;;;13.02;;
12412;SDS011;13877;18.896;-99.222;2023-06-14T07:37:05;27.90;;;13.52;;
12412;SDS011;13877;18.896;-99.222;2023-06-14T07:39:32;25.05;;;12.75;;
12412;SDS011;13877;18.896;-99.222;2023-06-14T07:41:59;25.40;;;12.73;;
12412;SDS011;13877;18.896;-99.222;2023-06-14T07:44:27;28.17;;;12.10;;
12412;SDS011;13877;18.896;-99.222;2023-06-14T07:46:58;27.13;;;12.55;;
12412;SDS011;13877;18.896;-99.222;2023-06-14T07:49:25;24.15;;;11.63;;
12412;SDS011;13877;18.896;-99.222;2023-06-14T07:51:53;28.00;;;12.60;;
12412;SDS011;13877;18.896;-99.222;2023-06-14T07:54:20;22.13;;;12.98;;
12412;SDS011;13877;18.896;-99.222;2023-06-14T07:56:52;24.70;;;11.98;;
12412;SDS011;13877;18.896;-99.222;2023-06-14T07:59:19;24.33;;;11.77;;
12412;SDS011;13877;18.896;-99.222;2023-06-14T08:01:46;21.30;;;12.10;;
12412;SDS011;13877;18.896;-99.222;2023-06-14T08:04:15;30.17;;;13.15;;
12412;SDS011;13877;18.896;-99.222;2023-06-14T08:06:42;36.40;;;12.77;;
12412;SDS011;13877;18.896;-99.222;2023-06-14T08:09:11;23.88;;;12.23;;
12412;SDS011;13877;18.896;-99.222;2023-06-14T08:11:39;21.77;;;12.90;;
12412;SDS011;13877;18.896;-99.222;2023-06-14T08:14:06;24.70;;;12.48;;
12412;SDS011;13877;18.896;-99.222;2023-06-14T08:16:33;21.60;;;11.88;;
12412;SDS011;13877;18.896;-99.222;2023-06-14T08:19:00;24.35;;;12.60;;
12412;SDS011;13877;18.896;-99.222;2023-06-14T08:21:27;20.80;;;12.05;;
12412;SDS011;13877;18.896;-99.222;2023-06-14T08:23:55;27.50;;;12.98;;
12412;SDS011;13877;18.896;-99.222;2023-06-14T08:26:21;26.40;;;12.82;;
12412;SDS011;13877;18.896;-99.222;2023-06-14T08:28:48;23.80;;;12.45;;
12412;SDS011;13877;18.896;-99.222;2023-06-14T08:31:15;25.63;;;12.25;;
12412;SDS011;13877;18.896;-99.222;2023-06-14T08:33:42;24.10;;;12.45;;
12412;SDS011;13877;18.896;-99.222;2023-06-14T08:36:09;25.98;;;12.93;;
12412;SDS011;13877;18.896;-99.222;2023-06-14T08:38:37;22.33;;;12.77;;
12412;SDS011;13877;18.896;-99.222;2023-06-14T08:41:05;32.47;;;13.02;;
12412;SDS011;13877;18.896;-99.222;2023-06-14T08:43:32;25.15;;;11.98;;
12412;SDS011;13877;18.896;-99.222;2023-06-14T08:46:02;27.20;;;12.65;;
12412;SDS011;13877;18.896;-99.222;2023-06-14T08:48:32;25.02;;;12.40;;
12412;SDS011;13877;18.896;-99.222;2023-06-14T08:51:00;25.40;;;12.73;;
12412;SDS011;13877;18.896;-99.222;2023-06-14T08:53:32;25.58;;;12.77;;
12412;SDS011;13877;18.896;-99.222;2023-06-14T08:56:00;26.30;;;13.97;;
12412;SDS011;13877;18.896;-99.222;2023-06-14T08:58:28;23.30;;;11.77;;
12412;SDS011;13877;18.896;-99.222;2023-06-14T09:00:57;24.70;;;13.20;;
12412;SDS011;13877;18.896;-99.222;2023-06-14T09:03:25;25.67;;;12.77;;
12412;SDS011;13877;18.896;-99.222;2023-06-14T09:05:58;26.95;;;12.27;;
12412;SDS011;13877;18.896;-99.222;2023-06-14T09:08:26;25.13;;;13.18;;
12412;SDS011;13877;18.896;-99.222;2023-06-14T09:10:57;20.67;;;12.70;;
12412;SDS011;13877;18.896;-99.222;2023-06-14T09:13:23;24.30;;;11.98;;
12412;SDS011;13877;18.896;-99.222;2023-06-14T09:15:52;24.42;;;13.63;;
12412;SDS011;13877;18.896;-99.222;2023-06-14T09:18:18;25.40;;;12.57;;
12412;SDS011;13877;18.896;-99.222;2023-06-14T09:20:46;30.05;;;13.95;;
12412;SDS011;13877;18.896;-99.222;2023-06-14T09:23:13;31.77;;;14.23;;
12412;SDS011;13877;18.896;-99.222;2023-06-14T09:25:48;28.10;;;14.20;;
12412;SDS011;13877;18.896;-99.222;2023-06-14T09:28:28;24.35;;;13.75;;
12412;SDS011;13877;18.896;-99.222;2023-06-14T09:30:55;22.70;;;12.30;;
12412;SDS011;13877;18.896;-99.222;2023-06-14T09:33:22;21.83;;;12.88;;
12412;SDS011;13877;18.896;-99.222;2023-06-14T09:35:51;24.50;;;13.30;;
12412;SDS011;13877;18.896;-99.222;2023-06-14T09:38:18;25.70;;;13.07;;
12412;SDS011;13877;18.896;-99.222;2023-06-14T09:40:46;25.15;;;13.23;;
12412;SDS011;13877;18.896;-99.222;2023-06-14T09:43:13;27.83;;;12.93;;
12412;SDS011;13877;18.896;-99.222;2023-06-14T09:45:41;29.00;;;14.00;;
12412;SDS011;13877;18.896;-99.222;2023-06-14T09:48:11;22.20;;;13.40;;
12412;SDS011;13877;18.896;-99.222;2023-06-14T09:50:46;33.47;;;13.70;;
12412;SDS011;13877;18.896;-99.222;2023-06-14T09:53:15;27.92;;;13.68;;
12412;SDS011;13877;18.896;-99.222;2023-06-14T09:55:47;27.10;;;13.48;;
12412;SDS011;13877;18.896;-99.222;2023-06-14T09:58:16;22.00;;;12.45;;
12412;SDS011;13877;18.896;-99.222;2023-06-14T10:00:46;25.15;;;13.32;;
12412;SDS011;13877;18.896;-99.222;2023-06-14T10:03:24;25.75;;;13.57;;
12412;SDS011;13877;18.896;-99.222;2023-06-14T10:05:54;24.88;;;13.25;;
12412;SDS011;13877;18.896;-99.222;2023-06-14T10:08:27;28.45;;;13.68;;
12412;SDS011;13877;18.896;-99.222;2023-06-14T10:10:58;26.20;;;13.00;;
12412;SDS011;13877;18.896;-99.222;2023-06-14T10:13:25;24.98;;;12.98;;
12412;SDS011;13877;18.896;-99.222;2023-06-14T10:15:59;23.42;;;12.60;;
12412;SDS011;13877;18.896;-99.222;2023-06-14T10:19:02;27.35;;;13.60;;
12412;SDS011;13877;18.896;-99.222;2023-06-14T10:21:58;23.83;;;12.90;;
12412;SDS011;13877;18.896;-99.222;2023-06-14T10:24:40;33.08;;;14.10;;
12412;SDS011;13877;18.896;-99.222;2023-06-14T10:27:09;21.15;;;12.73;;
12412;SDS011;13877;18.896;-99.222;2023-06-14T10:32:27;26.63;;;13.02;;
12412;SDS011;13877;18.896;-99.222;2023-06-14T10:35:01;28.98;;;13.88;;
12412;SDS011;13877;18.896;-99.222;2023-06-14T10:37:35;26.50;;;13.83;;
12412;SDS011;13877;18.896;-99.222;2023-06-14T10:40:02;25.38;;;13.35;;
12412;SDS011;13877;18.896;-99.222;2023-06-14T10:42:33;27.35;;;13.73;;
12412;SDS011;13877;18.896;-99.222;2023-06-14T10:45:00;28.88;;;13.55;;
12412;SDS011;13877;18.896;-99.222;2023-06-14T10:49:57;27.98;;;14.35;;
12412;SDS011;13877;18.896;-99.222;2023-06-14T10:52:37;23.75;;;13.48;;
12412;SDS011;13877;18.896;-99.222;2023-06-14T10:55:11;30.33;;;14.38;;
12412;SDS011;13877;18.896;-99.222;2023-06-14T10:57:44;25.73;;;14.48;;
12412;SDS011;13877;18.896;-99.222;2023-06-14T11:00:15;27.48;;;14.63;;
12412;SDS011;13877;18.896;-99.222;2023-06-14T11:08:27;31.48;;;15.30;;
12412;SDS011;13877;18.896;-99.222;2023-06-14T11:10:59;26.75;;;14.27;;
12412;SDS011;13877;18.896;-99.222;2023-06-14T11:13:26;26.30;;;14.02;;
12412;SDS011;13877;18.896;-99.222;2023-06-14T11:15:54;25.80;;;14.13;;
12412;SDS011;13877;18.896;-99.222;2023-06-14T11:18:23;24.67;;;14.88;;
12412;SDS011;13877;18.896;-99.222;2023-06-14T11:20:53;29.10;;;14.82;;
12412;SDS011;13877;18.896;-99.222;2023-06-14T11:23:21;29.27;;;14.50;;
12412;SDS011;13877;18.896;-99.222;2023-06-14T11:25:52;27.50;;;13.88;;
12412;SDS011;13877;18.896;-99.222;2023-06-14T11:28:20;26.85;;;14.25;;
12412;SDS011;13877;18.896;-99.222;2023-06-14T11:30:47;26.95;;;14.40;;
12412;SDS011;13877;18.896;-99.222;2023-06-14T11:33:18;29.08;;;15.18;;
12412;SDS011;13877;18.896;-99.222;2023-06-14T11:35:45;37.13;;;14.40;;
12412;SDS011;13877;18.896;-99.222;2023-06-14T11:38:12;26.92;;;15.10;;
12412;SDS011;13877;18.896;-99.222;2023-06-14T11:40:39;31.23;;;14.98;;
12412;SDS011;13877;18.896;-99.222;2023-06-14T11:43:06;28.05;;;15.27;;
12412;SDS011;13877;18.896;-99.222;2023-06-14T11:45:33;27.25;;;15.57;;
12412;SDS011;13877;18.896;-99.222;2023-06-14T11:48:00;26.65;;;14.82;;
12412;SDS011;13877;18.896;-99.222;2023-06-14T11:50:27;34.85;;;15.73;;
12412;SDS011;13877;18.896;-99.222;2023-06-14T11:52:58;26.60;;;14.75;;
12412;SDS011;13877;18.896;-99.222;2023-06-14T11:55:36;39.05;;;15.35;;
12412;SDS011;13877;18.896;-99.222;2023-06-14T11:58:04;26.13;;;14.95;;
12412;SDS011;13877;18.896;-99.222;2023-06-14T12:00:32;30.27;;;14.85;;
12412;SDS011;13877;18.896;-99.222;2023-06-14T12:03:01;27.30;;;14.85;;
12412;SDS011;13877;18.896;-99.222;2023-06-14T12:05:28;32.90;;;14.77;;
12412;SDS011;13877;18.896;-99.222;2023-06-14T12:07:59;28.65;;;15.68;;
12412;SDS011;13877;18.896;-99.222;2023-06-14T12:10:28;41.10;;;16.05;;
12412;SDS011;13877;18.896;-99.222;2023-06-14T12:12:59;32.88;;;15.60;;
12412;SDS011;13877;18.896;-99.222;2023-06-14T12:15:29;24.83;;;13.75;;
12412;SDS011;13877;18.896;-99.222;2023-06-14T12:17:57;29.17;;;15.00;;
12412;SDS011;13877;18.896;-99.222;2023-06-14T12:20:28;29.85;;;14.07;;
12412;SDS011;13877;18.896;-99.222;2023-06-14T12:23:02;29.60;;;14.52;;
12412;SDS011;13877;18.896;-99.222;2023-06-14T12:25:33;28.85;;;16.02;;
12412;SDS011;13877;18.896;-99.222;2023-06-14T12:28:07;30.88;;;16.30;;
12412;SDS011;13877;18.896;-99.222;2023-06-14T12:30:36;30.70;;;15.27;;
12412;SDS011;13877;18.896;-99.222;2023-06-14T12:33:03;26.90;;;14.65;;
12412;SDS011;13877;18.896;-99.222;2023-06-14T12:35:31;30.95;;;15.95;;
12412;SDS011;13877;18.896;-99.222;2023-06-14T12:37:58;26.33;;;15.38;;
12412;SDS011;13877;18.896;-99.222;2023-06-14T12:40:26;29.70;;;14.65;;
12412;SDS011;13877;18.896;-99.222;2023-06-14T12:42:53;29.45;;;15.00;;
12412;SDS011;13877;18.896;-99.222;2023-06-14T12:45:20;30.80;;;15.10;;
12412;SDS011;13877;18.896;-99.222;2023-06-14T12:47:48;28.52;;;14.13;;
12412;SDS011;13877;18.896;-99.222;2023-06-14T12:50:16;26.65;;;14.57;;
12412;SDS011;13877;18.896;-99.222;2023-06-14T12:52:42;26.05;;;13.95;;
12412;SDS011;13877;18.896;-99.222;2023-06-14T12:55:09;33.63;;;16.80;;
12412;SDS011;13877;18.896;-99.222;2023-06-14T12:57:36;31.42;;;15.95;;
12412;SDS011;13877;18.896;-99.222;2023-06-14T13:00:04;27.08;;;14.93;;
12412;SDS011;13877;18.896;-99.222;2023-06-14T13:02:33;30.92;;;15.05;;
12412;SDS011;13877;18.896;-99.222;2023-06-14T13:05:01;34.15;;;14.90;;
12412;SDS011;13877;18.896;-99.222;2023-06-14T13:07:29;31.52;;;13.82;;
12412;SDS011;13877;18.896;-99.222;2023-06-14T13:09:56;28.35;;;13.88;;
12412;SDS011;13877;18.896;-99.222;2023-06-14T13:12:23;27.90;;;14.63;;
12412;SDS011;13877;18.896;-99.222;2023-06-14T13:14:50;27.17;;;15.77;;
12412;SDS011;13877;18.896;-99.222;2023-06-14T13:17:16;34.95;;;15.20;;
12412;SDS011;13877;18.896;-99.222;2023-06-14T13:19:44;28.25;;;15.63;;
12412;SDS011;13877;18.896;-99.222;2023-06-14T13:22:12;26.33;;;14.38;;
12412;SDS011;13877;18.896;-99.222;2023-06-14T13:24:39;28.60;;;14.57;;
12412;SDS011;13877;18.896;-99.222;2023-06-14T13:27:06;28.67;;;14.50;;
12412;SDS011;13877;18.896;-99.222;2023-06-14T13:29:33;27.52;;;14.43;;
12412;SDS011;13877;18.896;-99.222;2023-06-14T13:32:02;29.10;;;15.52;;
12412;SDS011;13877;18.896;-99.222;2023-06-14T13:34:29;24.70;;;14.27;;
12412;SDS011;13877;18.896;-99.222;2023-06-14T13:36:56;29.50;;;14.25;;
12412;SDS011;13877;18.896;-99.222;2023-06-14T13:39:25;25.83;;;13.45;;
12412;SDS011;13877;18.896;-99.222;2023-06-14T13:41:52;23.98;;;14.70;;
12412;SDS011;13877;18.896;-99.222;2023-06-14T13:44:19;28.58;;;13.25;;
12412;SDS011;13877;18.896;-99.222;2023-06-14T13:46:46;23.15;;;13.95;;
12412;SDS011;13877;18.896;-99.222;2023-06-14T13:49:13;26.45;;;14.15;;
12412;SDS011;13877;18.896;-99.222;2023-06-14T13:51:40;31.75;;;14.45;;
12412;SDS011;13877;18.896;-99.222;2023-06-14T13:54:08;25.15;;;13.48;;
12412;SDS011;13877;18.896;-99.222;2023-06-14T13:56:34;25.55;;;13.75;;
12412;SDS011;13877;18.896;-99.222;2023-06-14T13:59:02;28.48;;;14.32;;
12412;SDS011;13877;18.896;-99.222;2023-06-14T14:01:28;30.40;;;13.73;;
12412;SDS011;13877;18.896;-99.222;2023-06-14T14:03:55;30.13;;;14.13;;
12412;SDS011;13877;18.896;-99.222;2023-06-14T14:06:24;23.38;;;12.82;;
12412;SDS011;13877;18.896;-99.222;2023-06-14T14:08:51;26.67;;;14.18;;
12412;SDS011;13877;18.896;-99.222;2023-06-14T14:11:18;23.23;;;13.88;;
12412;SDS011;13877;18.896;-99.222;2023-06-14T14:13:46;25.23;;;14.63;;
12412;SDS011;13877;18.896;-99.222;2023-06-14T14:16:13;25.90;;;14.43;;
12412;SDS011;13877;18.896;-99.222;2023-06-14T14:18:40;23.85;;;13.82;;